Norfolk, Virginia
Traffic Map
Current Weather Conditions
Norfolk, Virginia
Broken Clouds
Broken Clouds
72°
Feels Like: 72°
Wind Chill: 72° Ceiling: 4200
Heat Index: 72° Visibility: 10mi
Dew Point: 64° Wind: 7mph
Humidity: 76% Direction: 190° (S)
Pressure: 29.72in Gusts: 0mph
Raw Report DataKORF 032351Z AUTO 19006KT 10SM FEW024 BKN042 BKN049 22/18 A2972 RMK AO2 SLP063 60001 T02220178 10239 20200 55002 TSNO
Traffic Incident Summary
Active as of:
Severity:
Category:
InformationThere was an issue retrieving the traffic information for this location. Please try a different location or try again shortly.
Advertisements
Track Severe Weather on mobile